Aviation Digital Data Service (ADDS)

Output produced by METARs form (1104 UTC 22 January 2022)
found at http://aviationweather.gov/metar/data/
 
METAR text: KSBS 221055Z AUTO 00000KT M1/4SM OVC002 M14/M15 A3024 RMK AO1 T11431152
Conditions at: KSBS (STEAMBOAT SPRING, CO, US) observed 1055 UTC 22 January 2022
Temperature: -14.3°C ( 6°F)
Dewpoint: -15.2°C ( 5°F) [RH = 93%]
Pressure (altimeter): 30.24 inches Hg (1024.1 mb)
Winds: calm
Visibility: 0.25 miles (0.40 km)
Ceiling: 200 feet AGL
Clouds: overcast cloud deck at 200 feet AGL
Weather: automated observation with no human augmentation;
there may or may not be significant weather present at this time

METAR text: KSBS 221035Z AUTO 00000KT M1/4SM OVC002 M14/M15 A3024 RMK AO1 T11411148
Conditions at: KSBS (STEAMBOAT SPRING, CO, US) observed 1035 UTC 22 January 2022
Temperature: -14.1°C ( 7°F)
Dewpoint: -14.8°C ( 5°F) [RH = 94%]
Pressure (altimeter): 30.24 inches Hg (1024.1 mb)
Winds: calm
Visibility: 0.25 miles (0.40 km)
Ceiling: 200 feet AGL
Clouds: overcast cloud deck at 200 feet AGL
Weather: automated observation with no human augmentation;
there may or may not be significant weather present at this time

METAR text: KSBS 221015Z AUTO 00000KT M1/4SM OVC002 M14/M15 A3024 RMK AO1 T11451155
Conditions at: KSBS (STEAMBOAT SPRING, CO, US) observed 1015 UTC 22 January 2022
Temperature: -14.5°C ( 6°F)
Dewpoint: -15.5°C ( 4°F) [RH = 92%]
Pressure (altimeter): 30.24 inches Hg (1024.1 mb)
Winds: calm
Visibility: 0.25 miles (0.40 km)
Ceiling: 200 feet AGL
Clouds: overcast cloud deck at 200 feet AGL
Weather: automated observation with no human augmentation;
there may or may not be significant weather present at this time